createdAt,value
2023-03-31T00:04:47.244Z,79.90
2023-03-31T00:09:47.133Z,80.41
2023-03-31T00:14:47.064Z,79.90
2023-03-31T00:19:47.002Z,79.90
2023-03-31T00:24:46.940Z,80.20
2023-03-31T00:29:46.875Z,79.75
2023-03-31T00:34:46.825Z,80.00
2023-03-31T00:39:46.731Z,79.96
2023-03-31T00:44:46.663Z,79.66
2023-03-31T00:49:46.601Z,79.66
2023-03-31T00:54:46.524Z,79.66
2023-03-31T00:59:46.464Z,79.66
2023-03-31T01:04:46.389Z,80.20
2023-03-31T01:09:46.351Z,80.10
2023-03-31T01:14:46.259Z,80.51
2023-03-31T01:19:46.220Z,78.91
2023-03-31T01:24:46.125Z,79.45
2023-03-31T01:29:46.061Z,79.80
2023-03-31T01:34:45.994Z,80.30
2023-03-31T01:39:45.928Z,81.16
2023-03-31T01:44:45.857Z,81.16
2023-03-31T01:49:45.812Z,81.40
2023-03-31T01:54:45.733Z,82.12
2023-03-31T01:59:45.656Z,81.51
2023-03-31T02:04:45.592Z,81.40
2023-03-31T02:09:45.528Z,81.51
2023-03-31T02:14:45.478Z,81.60
2023-03-31T02:19:45.408Z,82.15
2023-03-31T02:24:45.322Z,82.56
2023-03-31T02:29:45.265Z,82.91
2023-03-31T02:34:45.189Z,83.32
2023-03-31T02:39:45.132Z,83.46
2023-03-31T02:44:45.070Z,83.56
2023-03-31T02:49:44.997Z,83.97
2023-03-31T02:54:44.929Z,84.11
2023-03-31T02:59:44.866Z,84.72
2023-03-31T03:04:44.801Z,85.79
2023-03-31T03:09:44.744Z,86.24
2023-03-31T03:14:44.659Z,87.26
2023-03-31T03:19:44.599Z,87.77
2023-03-31T03:24:44.526Z,87.92
2023-03-31T03:29:44.458Z,88.12
2023-03-31T03:34:44.391Z,88.43
2023-03-31T03:39:44.319Z,88.53
2023-03-31T03:44:44.265Z,87.37
2023-03-31T03:49:44.181Z,87.06
2023-03-31T03:54:44.120Z,86.40
2023-03-31T03:59:44.041Z,86.46
2023-03-31T04:04:44.015Z,85.99
2023-03-31T04:09:43.961Z,85.55
2023-03-31T04:14:43.888Z,84.93
2023-03-31T04:19:43.786Z,85.24
2023-03-31T04:24:43.716Z,85.75
2023-03-31T04:29:43.655Z,85.61
2023-03-31T04:34:43.577Z,85.14
2023-03-31T04:39:43.538Z,85.34
2023-03-31T04:44:43.481Z,85.75
2023-03-31T04:49:43.364Z,84.69
2023-03-31T04:54:43.301Z,84.55
2023-03-31T04:59:43.254Z,83.52
2023-03-31T05:04:43.159Z,82.77
2023-03-31T05:09:43.116Z,82.63
2023-03-31T05:14:43.044Z,82.15
2023-03-31T05:19:42.976Z,82.60
2023-03-31T05:24:42.918Z,82.36
2023-03-31T05:29:42.863Z,83.32
2023-03-31T05:34:42.783Z,83.32
2023-03-31T05:39:42.719Z,82.97
2023-03-31T05:44:42.663Z,82.01
2023-03-31T05:49:42.583Z,81.02
2023-03-31T05:54:42.526Z,78.32
2023-03-31T05:59:42.448Z,75.84
2023-03-31T06:04:42.492Z,75.37
2023-03-31T06:09:42.322Z,74.65
2023-03-31T06:14:42.255Z,73.06
2023-03-31T06:19:42.188Z,72.31
2023-03-31T06:24:42.134Z,72.31
2023-03-31T06:29:42.049Z,71.47
2023-03-31T06:34:41.970Z,72.28
2023-03-31T06:39:42.024Z,71.67
2023-03-31T06:44:41.834Z,71.16
2023-03-31T06:49:41.793Z,69.85
2023-03-31T06:54:41.703Z,64.94
2023-03-31T06:59:41.642Z,61.92
2023-03-31T07:04:41.570Z,62.12
2023-03-31T07:09:41.496Z,61.29
2023-03-31T07:14:41.428Z,62.43
2023-03-31T07:19:41.364Z,64.40
2023-03-31T07:24:41.293Z,64.36
2023-03-31T07:29:41.230Z,66.04
2023-03-31T07:34:41.156Z,66.55
2023-03-31T07:39:41.101Z,65.91
2023-03-31T07:44:41.022Z,63.06
2023-03-31T07:49:40.961Z,60.63
2023-03-31T07:54:40.889Z,58.42
2023-03-31T07:59:40.840Z,58.22
2023-03-31T08:04:40.812Z,58.33
2023-03-31T08:09:40.693Z,58.28
2023-03-31T08:14:41.682Z,59.14
2023-03-31T08:19:40.565Z,60.00
2023-03-31T08:24:40.491Z,61.04
2023-03-31T08:29:40.427Z,61.17
2023-03-31T08:34:40.408Z,62.11
2023-03-31T08:39:40.291Z,62.37
2023-03-31T08:44:40.273Z,63.38
2023-03-31T08:49:40.159Z,64.12
2023-03-31T08:54:40.122Z,64.02
2023-03-31T08:59:40.056Z,63.75
2023-03-31T09:04:39.967Z,65.29
2023-03-31T09:09:39.900Z,66.30
2023-03-31T09:14:39.834Z,66.94
2023-03-31T09:19:39.765Z,68.60
2023-03-31T09:24:39.697Z,66.64
2023-03-31T09:29:40.921Z,67.08
2023-03-31T09:34:39.573Z,67.48
2023-03-31T09:39:39.554Z,67.28
2023-03-31T09:44:39.444Z,67.14
2023-03-31T09:49:39.368Z,67.05
2023-03-31T09:54:39.306Z,67.89
2023-03-31T09:59:39.232Z,68.09
2023-03-31T10:04:39.319Z,68.52
2023-03-31T10:09:39.105Z,69.27
2023-03-31T10:14:39.033Z,68.83
2023-03-31T10:19:39.140Z,68.02
2023-03-31T10:24:38.957Z,68.02
2023-03-31T10:29:38.825Z,66.80
2023-03-31T10:34:38.759Z,67.85
2023-03-31T10:39:38.726Z,68.35
2023-03-31T10:44:38.661Z,68.66
2023-03-31T10:49:38.583Z,69.44
2023-03-31T10:54:38.476Z,68.73
2023-03-31T10:59:38.416Z,69.54
2023-03-31T11:04:38.338Z,69.44
2023-03-31T11:09:38.290Z,69.71
2023-03-31T11:14:38.213Z,70.86
2023-03-31T11:19:38.138Z,71.06
2023-03-31T11:24:38.110Z,72.31
2023-03-31T11:29:38.028Z,72.61
2023-03-31T11:34:37.934Z,72.41
2023-03-31T11:39:37.887Z,74.68
2023-03-31T11:44:37.806Z,76.51
2023-03-31T11:49:37.732Z,76.61
2023-03-31T11:54:37.686Z,77.36
2023-03-31T11:59:37.603Z,76.75
2023-03-31T12:04:37.530Z,77.09
2023-03-31T12:09:37.476Z,77.63
2023-03-31T12:14:37.412Z,78.08
2023-03-31T12:19:37.338Z,79.90
2023-03-31T12:24:37.275Z,80.35
2023-03-31T12:29:37.208Z,82.05
2023-03-31T12:34:37.123Z,84.70
2023-03-31T12:39:37.105Z,85.61
2023-03-31T12:44:37.018Z,83.89
2023-03-31T12:49:36.953Z,85.61
2023-03-31T12:54:36.872Z,86.37
2023-03-31T12:59:36.820Z,87.18
2023-03-31T13:04:36.740Z,87.69
2023-03-31T13:09:36.673Z,87.23
2023-03-31T13:14:36.594Z,86.82
2023-03-31T13:19:36.519Z,86.21
2023-03-31T13:24:36.468Z,87.12
2023-03-31T13:29:36.396Z,85.75
2023-03-31T13:34:36.329Z,86.57
2023-03-31T13:39:36.250Z,85.21
2023-03-31T13:44:37.173Z,85.03
2023-03-31T13:49:36.113Z,84.68
2023-03-31T13:54:36.064Z,83.46
2023-03-31T13:59:35.985Z,83.76
2023-03-31T14:04:35.924Z,81.53
2023-03-31T14:09:35.879Z,78.95
2023-03-31T14:14:35.799Z,75.02
2023-03-31T14:19:35.725Z,72.31
2023-03-31T14:24:35.663Z,70.12
2023-03-31T14:29:35.602Z,69.04
2023-03-31T14:34:35.582Z,66.85
2023-03-31T14:39:35.472Z,66.52
2023-03-31T14:44:35.497Z,67.52
2023-03-31T14:49:35.334Z,66.72
2023-03-31T14:54:35.271Z,65.40
2023-03-31T14:59:35.197Z,66.78
2023-03-31T15:04:42.127Z,67.28
2023-03-31T15:09:36.088Z,69.37
2023-03-31T15:14:35.033Z,70.11
2023-03-31T15:19:34.965Z,68.80
2023-03-31T15:24:34.873Z,69.03
2023-03-31T15:29:34.808Z,69.84
2023-03-31T15:34:34.738Z,68.06
2023-03-31T15:39:34.702Z,68.93
2023-03-31T15:44:34.635Z,72.75
2023-03-31T15:49:34.523Z,72.69
2023-03-31T15:54:34.454Z,73.53
2023-03-31T15:59:46.112Z,73.60
2023-03-31T16:04:35.365Z,73.02
2023-03-31T16:09:34.284Z,73.90
2023-03-31T16:14:34.348Z,72.75
2023-03-31T16:19:34.123Z,72.45
2023-03-31T16:24:34.401Z,74.04
2023-03-31T16:29:34.137Z,75.05
2023-03-31T16:34:33.915Z,76.61
2023-03-31T16:39:33.850Z,75.32
2023-03-31T16:44:33.790Z,74.88
2023-03-31T16:49:33.717Z,75.59
2023-03-31T16:54:33.671Z,75.73
2023-03-31T16:59:33.591Z,76.82
2023-03-31T17:04:33.532Z,76.55
2023-03-31T17:09:33.451Z,77.50
2023-03-31T17:14:33.398Z,79.41
2023-03-31T17:19:33.325Z,80.91
2023-03-31T17:24:33.269Z,82.31
2023-03-31T17:29:33.225Z,82.96
2023-03-31T17:34:33.212Z,85.35
2023-03-31T17:39:33.052Z,87.06
2023-03-31T17:44:33.015Z,86.65
2023-03-31T17:49:32.916Z,86.76
2023-03-31T17:54:32.847Z,87.51
2023-03-31T17:59:32.836Z,89.09
2023-03-31T18:04:32.826Z,90.72
2023-03-31T18:09:32.674Z,89.09
2023-03-31T18:14:32.704Z,89.18
2023-03-31T18:19:32.493Z,89.39
2023-03-31T18:24:32.475Z,88.43
2023-03-31T18:29:32.388Z,88.33
2023-03-31T18:34:32.316Z,88.39
2023-03-31T18:39:32.228Z,87.06
2023-03-31T18:44:32.287Z,86.82
2023-03-31T18:49:32.090Z,86.04
2023-03-31T18:54:32.021Z,86.91
2023-03-31T18:59:31.948Z,87.12
2023-03-31T19:04:31.904Z,85.79
2023-03-31T19:09:31.830Z,85.65
2023-03-31T19:14:31.875Z,84.77
2023-03-31T19:19:31.753Z,85.28
2023-03-31T19:24:31.659Z,81.05
2023-03-31T19:29:31.620Z,79.69
2023-03-31T19:34:31.513Z,76.66
2023-03-31T19:39:31.435Z,75.64
2023-03-31T19:44:31.371Z,76.46
2023-03-31T19:49:31.422Z,75.81
2023-03-31T19:54:31.263Z,75.60
2023-03-31T19:59:31.203Z,75.85
2023-03-31T20:04:31.202Z,75.74
2023-03-31T20:09:31.083Z,76.66
2023-03-31T20:14:30.980Z,77.27
2023-03-31T20:19:30.904Z,76.25
2023-03-31T20:24:30.843Z,77.91
2023-03-31T20:29:30.781Z,75.60
2023-03-31T20:34:30.704Z,75.64
2023-03-31T20:39:30.628Z,77.33
2023-03-31T20:44:30.568Z,75.46
2023-03-31T20:49:30.494Z,75.09
2023-03-31T20:54:30.435Z,77.00
2023-03-31T20:59:30.365Z,78.66
2023-03-31T21:04:30.311Z,79.55
2023-03-31T21:09:30.225Z,79.32
2023-03-31T21:14:30.174Z,80.27
2023-03-31T21:19:30.101Z,80.16
2023-03-31T21:24:30.039Z,80.27
2023-03-31T21:29:29.979Z,81.09
2023-03-31T21:34:29.927Z,80.37
2023-03-31T21:39:29.837Z,80.57
2023-03-31T21:44:29.781Z,80.47
2023-03-31T21:49:29.702Z,81.63
2023-03-31T21:54:29.642Z,81.18
2023-03-31T21:59:29.575Z,80.57
2023-03-31T22:04:30.777Z,80.57
2023-03-31T22:09:29.434Z,81.09
2023-03-31T22:14:29.374Z,78.80
2023-03-31T22:19:29.295Z,78.80
2023-03-31T22:24:29.255Z,77.44
2023-03-31T22:29:29.174Z,78.09
2023-03-31T22:34:29.114Z,77.24
2023-03-31T22:39:29.035Z,77.68
2023-03-31T22:44:28.966Z,77.58
2023-03-31T22:49:28.955Z,78.09
2023-03-31T22:54:28.835Z,78.09
2023-03-31T22:59:28.767Z,77.14
2023-03-31T23:04:28.718Z,77.14
2023-03-31T23:09:28.632Z,77.07
2023-03-31T23:14:28.573Z,78.16
2023-03-31T23:19:28.499Z,77.44
2023-03-31T23:24:28.439Z,78.26
2023-03-31T23:29:28.363Z,79.55
2023-03-31T23:34:28.301Z,79.35
2023-03-31T23:39:28.226Z,78.77
2023-03-31T23:44:28.179Z,76.69
2023-03-31T23:49:28.094Z,77.67
2023-03-31T23:54:28.027Z,76.62
2023-03-31T23:59:27.962Z,77.33
